Time;durP1;ratioP1;P1;durP2;ratioP2;P2;SDS_P1;SDS_P2;PMS_P1;PMS_P2;Temp;Humidity;BMP_temperature;BMP_pressure;BME280_temperature;BME280_humidity;BME280_pressure;Samples;Min_cycle;Max_cycle;Signal;HPM_P1;HPM_P2
2024/01/25 00:00:57;;;;;;;;;6.00;4.33;;;;;11.75;100.00;102954.34;5061709;28;47821;-89
2024/01/25 00:03:23;;;;;;;;;5.00;3.67;;;;;12.01;100.00;103006.91;5061100;28;45368;-89
2024/01/25 00:05:49;;;;;;;;;3.00;3.00;;;;;12.26;100.00;103057.75;5078513;28;45310;-88
2024/01/25 00:08:14;;;;;;;;;5.00;3.00;;;;;12.46;100.00;103106.03;5078496;28;45256;-89
2024/01/25 00:10:43;;;;;;;;;5.00;3.00;;;;;11.91;100.00;102986.78;5061372;28;47316;-89
2024/01/25 00:13:09;;;;;;;;;1.33;1.00;;;;;12.17;100.00;103029.59;5079400;28;45452;-89
2024/01/25 00:15:35;;;;;;;;;6.67;3.00;;;;;12.47;100.00;103106.00;5081258;28;45356;-89
2024/01/25 00:18:00;;;;;;;;;3.00;2.33;;;;;11.55;100.00;102918.47;5075670;28;45432;-89
2024/01/25 00:20:26;;;;;;;;;6.00;4.00;;;;;12.10;100.00;103013.84;5058272;28;46365;-89
2024/01/25 00:22:51;;;;;;;;;3.67;3.67;;;;;12.13;100.00;103029.69;5078394;28;45407;-89
2024/01/25 00:25:17;;;;;;;;;5.00;4.00;;;;;11.83;100.00;102978.97;5078149;27;45319;-89
2024/01/25 00:27:44;;;;;;;;;1.33;0.33;;;;;11.79;100.00;102979.03;5057983;28;45567;-87
2024/01/25 00:30:10;;;;;;;;;3.00;2.00;;;;;12.31;100.00;103061.19;5054817;28;47330;-87
2024/01/25 00:32:42;;;;;;;;;6.67;2.33;;;;;11.49;100.00;102928.25;5082352;28;45324;-87
2024/01/25 00:35:10;;;;;;;;;2.00;1.67;;;;;11.36;100.00;102896.69;5082681;28;45335;-86
2024/01/25 00:37:36;;;;;;;;;1.33;1.33;;;;;11.86;100.00;102994.81;5082270;28;45542;-86
2024/01/25 00:40:03;;;;;;;;;4.00;3.00;;;;;11.79;100.00;102994.94;5080338;27;48488;-86
2024/01/25 00:42:38;;;;;;;;;2.00;1.00;;;;;11.80;100.00;103005.53;5081928;28;45422;-85
2024/01/25 00:45:04;;;;;;;;;5.00;2.00;;;;;11.41;100.00;102905.47;5081788;28;45514;-85
2024/01/25 00:47:33;;;;;;;;;1.00;1.00;;;;;11.67;100.00;102952.72;5082035;28;45478;-85
2024/01/25 00:50:09;;;;;;;;;8.33;2.67;;;;;11.38;100.00;102938.19;5057997;28;45441;-86
2024/01/25 00:52:35;;;;;;;;;4.67;2.33;;;;;11.49;100.00;102945.94;5084689;27;45458;-85
2024/01/25 00:55:01;;;;;;;;;6.00;3.00;;;;;12.06;100.00;103026.28;5063601;28;45400;-86
2024/01/25 00:57:34;;;;;;;;;4.00;3.00;;;;;11.38;100.00;102914.34;5074398;28;45477;-85
2024/01/25 01:00:00;;;;;;;;;3.67;3.00;;;;;11.76;100.00;102976.44;5055303;28;47280;-85
2024/01/25 01:02:30;;;;;;;;;4.33;3.00;;;;;11.97;100.00;103037.06;5074327;28;45444;-85
2024/01/25 01:05:03;;;;;;;;;3.00;3.00;;;;;11.68;100.00;102960.63;5074442;27;45461;-84
2024/01/25 01:07:36;;;;;;;;;3.33;3.00;;;;;11.99;100.00;103037.91;5064598;27;45360;-85
2024/01/25 01:10:02;;;;;;;;;4.00;3.00;;;;;11.89;100.00;103023.94;5089018;27;45333;-85
2024/01/25 01:12:27;;;;;;;;;5.00;3.67;;;;;11.81;100.00;102996.66;5084459;27;45470;-85
2024/01/25 01:15:02;;;;;;;;;5.00;4.00;;;;;11.20;100.00;102887.25;5087227;27;45398;-85
2024/01/25 01:17:32;;;;;;;;;5.33;4.00;;;;;11.76;100.00;102981.75;5077478;27;45527;-84
2024/01/25 01:19:58;;;;;;;;;4.00;4.00;;;;;11.75;100.00;102979.97;5063937;28;46437;-84
2024/01/25 01:22:40;;;;;;;;;4.67;3.33;;;;;11.32;100.00;102901.16;5080986;27;45469;-84
2024/01/25 01:25:06;;;;;;;;;6.00;4.33;;;;;11.34;100.00;102909.09;5095580;27;45455;-84
2024/01/25 01:27:31;;;;;;;;;5.67;4.00;;;;;11.32;100.00;102879.97;5091556;27;45604;-84
2024/01/25 01:29:57;;;;;;;;;5.00;4.00;;;;;12.15;100.00;103036.72;5086620;27;45874;-84
2024/01/25 01:32:22;;;;;;;;;5.67;3.67;;;;;12.13;100.00;103027.94;5087986;27;45246;-83
2024/01/25 01:34:50;;;;;;;;;10.33;5.33;;;;;12.13;100.00;103041.19;5076929;27;45275;-84
2024/01/25 01:37:16;;;;;;;;;4.33;3.00;;;;;11.10;100.00;102849.47;5075885;28;45945;-83
2024/01/25 01:39:44;;;;;;;;;3.67;3.67;;;;;11.62;100.00;102971.31;5083103;27;48046;-83
2024/01/25 01:42:11;;;;;;;;;4.67;4.00;;;;;11.35;100.00;102934.72;5080843;28;45483;-83
2024/01/25 01:44:38;;;;;;;;;5.33;3.67;;;;;11.06;100.00;102868.09;5081196;28;45311;-84
2024/01/25 01:47:07;;;;;;;;;4.67;2.67;;;;;11.28;100.00;102907.44;5083212;27;45400;-83
2024/01/25 01:49:42;;;;;;;;;4.67;4.00;;;;;11.43;100.00;102915.13;5066234;27;45666;-83
2024/01/25 01:52:09;;;;;;;;;5.33;4.00;;;;;11.09;100.00;102866.28;5077682;27;45474;-83
2024/01/25 01:54:36;;;;;;;;;5.33;5.00;;;;;11.81;100.00;103009.06;5072343;27;45458;-84
2024/01/25 01:57:14;;;;;;;;;9.67;4.00;;;;;11.52;100.00;102924.69;5085247;27;45523;-83
2024/01/25 01:59:39;;;;;;;;;3.00;3.00;;;;;11.77;100.00;102989.69;5079505;27;46122;-84
2024/01/25 02:02:07;;;;;;;;;3.33;3.33;;;;;11.61;100.00;102945.75;5079719;28;45396;-84
2024/01/25 02:04:37;;;;;;;;;7.00;3.00;;;;;11.80;100.00;102972.84;5089681;27;45512;-85
2024/01/25 02:07:03;;;;;;;;;2.00;2.00;;;;;12.12;100.00;103060.66;5066516;28;45596;-84
2024/01/25 02:09:34;;;;;;;;;4.33;3.00;;;;;12.11;100.00;103074.81;5088189;27;46042;-85
2024/01/25 02:12:03;;;;;;;;;0.00;0.00;;;;;11.64;100.00;102961.59;5066629;28;45421;-85
2024/01/25 02:14:30;;;;;;;;;8.33;3.00;;;;;11.29;100.00;102910.94;5075316;27;45522;-86
2024/01/25 02:16:56;;;;;;;;;5.33;3.00;;;;;11.33;100.00;102905.56;5087441;27;45275;-86
2024/01/25 02:19:26;;;;;;;;;4.00;3.00;;;;;11.09;100.00;102876.00;5068963;28;47125;-87
2024/01/25 02:21:54;;;;;;;;;3.67;3.67;;;;;11.39;100.00;102941.69;5063034;27;45377;-88
2024/01/25 02:24:20;;;;;;;;;5.00;3.00;;;;;12.03;100.00;103036.94;5081808;27;45216;-88
2024/01/25 02:26:46;;;;;;;;;5.67;5.67;;;;;11.54;100.00;102952.06;5080881;27;45347;-88
2024/01/25 02:29:11;;;;;;;;;5.00;4.33;;;;;12.01;100.00;103038.72;5065191;28;45219;-87
2024/01/25 02:31:41;;;;;;;;;3.33;1.67;;;;;10.96;100.00;102868.22;5068955;28;45382;-88
2024/01/25 02:34:07;;;;;;;;;4.00;4.00;;;;;11.05;100.00;102876.94;5080290;27;45290;-88
2024/01/25 02:36:33;;;;;;;;;6.67;5.67;;;;;11.38;100.00;102953.22;5082239;27;45701;-89
2024/01/25 02:38:59;;;;;;;;;4.33;3.67;;;;;11.31;100.00;102933.88;5066553;28;46759;-90
2024/01/25 02:41:25;;;;;;;;;5.00;3.67;;;;;11.96;100.00;103053.88;5081749;27;45281;-88
2024/01/25 02:43:50;;;;;;;;;9.67;4.33;;;;;10.91;100.00;102877.13;5058187;28;45266;-87
2024/01/25 02:46:16;;;;;;;;;5.33;4.33;;;;;11.39;100.00;102946.97;5067159;27;45378;-87
2024/01/25 02:48:41;;;;;;;;;7.00;4.00;;;;;11.61;100.00;102984.63;5088314;27;45983;-87
2024/01/25 02:51:07;;;;;;;;;4.67;4.00;;;;;11.34;100.00;102964.75;5077941;27;45907;-88
2024/01/25 02:53:33;;;;;;;;;4.00;3.00;;;;;11.09;100.00;102898.06;5092379;27;45362;-87
2024/01/25 02:55:58;;;;;;;;;5.67;4.33;;;;;11.26;100.00;102918.94;5081425;27;45561;-88
2024/01/25 02:58:24;;;;;;;;;7.00;5.00;;;;;11.38;100.00;102953.22;5080203;28;46971;-88
2024/01/25 03:00:49;;;;;;;;;4.33;3.33;;;;;11.24;100.00;102913.69;5077254;27;45368;-88
2024/01/25 03:03:14;;;;;;;;;5.33;2.33;;;;;11.88;100.00;103013.34;5086919;27;45600;-89
2024/01/25 03:05:48;;;;;;;;;3.33;2.33;;;;;11.91;100.00;103040.66;5071608;28;45541;-88
2024/01/25 03:08:14;;;;;;;;;5.00;2.00;;;;;11.88;100.00;103039.84;5079402;28;47037;-88
2024/01/25 03:10:40;;;;;;;;;5.00;2.00;;;;;11.52;100.00;102971.53;5063566;28;45506;-88
2024/01/25 03:13:05;;;;;;;;;3.33;2.00;;;;;11.71;100.00;103007.47;5077992;28;45491;-87
2024/01/25 03:15:31;;;;;;;;;5.00;3.00;;;;;11.35;100.00;102950.59;5062248;28;45455;-86
2024/01/25 03:17:56;;;;;;;;;2.00;2.00;;;;;10.99;100.00;102894.66;5058196;28;45685;-87
2024/01/25 03:20:24;;;;;;;;;4.33;3.00;;;;;11.24;100.00;102958.72;5073565;28;45715;-87
2024/01/25 03:22:50;;;;;;;;;3.67;3.00;;;;;11.27;100.00;102960.44;5064345;28;45475;-87
2024/01/25 03:25:22;;;;;;;;;2.33;2.33;;;;;11.08;100.00;102909.53;5060482;28;45481;-88
2024/01/25 03:27:48;;;;;;;;;5.67;2.00;;;;;11.07;100.00;102913.06;5078706;28;48084;-88
2024/01/25 03:30:20;;;;;;;;;4.33;3.00;;;;;11.44;100.00;103000.78;5078322;28;45337;-87
2024/01/25 03:32:50;;;;;;;;;3.00;2.00;;;;;11.19;100.00;102938.50;5065685;28;45460;-88
2024/01/25 03:35:33;;;;;;;;;5.67;1.33;;;;;10.96;100.00;102886.75;5052369;28;45611;-87
2024/01/25 03:37:58;;;;;;;;;5.00;2.67;;;;;10.69;100.00;102831.59;5061346;28;45374;-87
2024/01/25 03:40:28;;;;;;;;;2.00;1.00;;;;;10.94;100.00;102874.44;5079995;28;45333;-88
2024/01/25 03:42:58;;;;;;;;;5.33;3.00;;;;;11.71;100.00;103041.94;5077764;28;45424;-87
2024/01/25 03:45:25;;;;;;;;;2.67;2.00;;;;;11.43;100.00;102964.59;5058533;28;45514;-88
2024/01/25 03:47:51;;;;;;;;;3.00;1.67;;;;;11.08;100.00;102903.34;5054192;28;45585;-88
2024/01/25 03:50:24;;;;;;;;;2.33;1.00;;;;;10.81;100.00;102857.88;5079935;28;45406;-88
2024/01/25 03:52:50;;;;;;;;;4.00;2.00;;;;;10.99;100.00;102899.09;5061360;28;45295;-88
2024/01/25 03:55:15;;;;;;;;;2.00;1.67;;;;;11.34;100.00;102967.41;5061089;28;45803;-88
2024/01/25 03:57:41;;;;;;;;;2.00;0.00;;;;;10.83;100.00;102850.78;5060015;28;46924;-87
2024/01/25 04:00:09;;;;;;;;;3.00;2.00;;;;;11.52;100.00;102983.88;5078215;28;45547;-88
2024/01/25 04:02:34;;;;;;;;;1.00;1.00;;;;;11.15;100.00;102931.50;5058396;28;45322;-87
2024/01/25 04:05:00;;;;;;;;;0.00;0.00;;;;;11.09;100.00;102918.34;5077419;28;45411;-88
2024/01/25 04:07:26;;;;;;;;;1.00;1.00;;;;;10.78;100.00;102863.22;5080149;28;45424;-88
2024/01/25 04:09:51;;;;;;;;;2.00;1.00;;;;;11.61;100.00;102988.16;5080617;28;45375;-87
2024/01/25 04:12:16;;;;;;;;;0.67;0.67;;;;;11.29;100.00;102935.66;5062438;28;45514;-88
2024/01/25 04:14:42;;;;;;;;;2.00;1.00;;;;;11.54;100.00;102975.03;5062014;28;45901;-88
2024/01/25 04:17:08;;;;;;;;;2.00;1.00;;;;;11.34;100.00;102954.16;5079321;28;46297;-88
2024/01/25 04:19:36;;;;;;;;;0.00;0.00;;;;;10.82;100.00;102867.56;5064643;28;45446;-88
2024/01/25 04:22:02;;;;;;;;;2.67;1.00;;;;;11.26;100.00;102934.84;5080149;28;45481;-87
2024/01/25 04:24:28;;;;;;;;;2.00;0.00;;;;;11.54;100.00;102994.44;5057880;28;45368;-87
2024/01/25 04:26:53;;;;;;;;;3.00;0.67;;;;;11.10;100.00;102938.63;5057204;28;47407;-86
2024/01/25 04:29:22;;;;;;;;;0.67;0.67;;;;;11.62;100.00;103005.78;5077824;28;45438;-88
2024/01/25 04:31:48;;;;;;;;;3.33;0.67;;;;;10.69;100.00;102844.84;5058297;28;45317;-88
2024/01/25 04:34:14;;;;;;;;;4.00;2.00;;;;;11.08;100.00;102906.00;5077669;28;45537;-87
2024/01/25 04:36:40;;;;;;;;;3.00;2.00;;;;;11.64;100.00;103005.78;5077607;28;47947;-88
2024/01/25 04:39:06;;;;;;;;;2.00;2.00;;;;;10.67;100.00;102836.03;5077084;28;45435;-88
2024/01/25 04:41:31;;;;;;;;;1.67;1.67;;;;;11.02;100.00;102901.69;5061022;28;45495;-88
2024/01/25 04:43:57;;;;;;;;;3.67;3.00;;;;;10.64;100.00;102825.50;5060605;28;45400;-88
2024/01/25 04:46:22;;;;;;;;;4.00;3.00;;;;;10.75;100.00;102833.28;5067978;28;46431;-88
2024/01/25 04:48:47;;;;;;;;;6.00;5.00;;;;;11.18;100.00;102916.44;5061019;28;46015;-87
2024/01/25 04:51:21;;;;;;;;;5.00;4.67;;;;;10.84;100.00;102883.41;5057716;28;45444;-87
2024/01/25 04:53:47;;;;;;;;;6.00;6.00;;;;;11.50;100.00;102964.47;5048388;28;45670;-88
2024/01/25 04:56:12;;;;;;;;;6.00;4.67;;;;;11.49;100.00;102961.84;5060060;28;45849;-88
2024/01/25 04:58:37;;;;;;;;;9.33;4.33;;;;;11.06;100.00;102884.84;5078786;28;45502;-88
2024/01/25 05:01:06;;;;;;;;;14.67;10.33;;;;;11.08;100.00;102904.25;5056968;28;45395;-88
2024/01/25 05:03:32;;;;;;;;;5.00;4.00;;;;;11.08;100.00;102882.16;5077045;27;45427;-87
2024/01/25 05:05:57;;;;;;;;;11.33;8.33;;;;;11.36;100.00;102925.84;5074883;27;45651;-88
2024/01/25 05:08:23;;;;;;;;;12.33;6.00;;;;;11.05;100.00;102861.03;5060810;28;45332;-88
2024/01/25 05:10:48;;;;;;;;;7.67;7.00;;;;;11.01;100.00;102867.28;5060826;28;45643;-88
2024/01/25 05:13:18;;;;;;;;;10.00;5.67;;;;;11.57;100.00;102973.19;5072970;28;45276;-87
2024/01/25 05:15:44;;;;;;;;;5.00;5.00;;;;;11.18;100.00;102903.19;5063434;28;45657;-88
2024/01/25 05:18:21;;;;;;;;;;;;;;;;;;;;;
2024/01/25 05:20:46;;;;;;;;;12.33;7.33;;;;;11.19;100.00;102896.13;5081566;28;67404;-87
2024/01/25 05:23:12;;;;;;;;;14.00;10.00;;;;;11.10;100.00;102862.69;5080580;27;45552;-88
2024/01/25 05:25:38;;;;;;;;;11.33;9.33;;;;;10.85;100.00;102827.81;5078653;28;47166;-87
2024/01/25 05:28:07;;;;;;;;;9.67;7.67;;;;;11.68;100.00;102973.88;5064978;28;45491;-87
2024/01/25 05:30:34;;;;;;;;;9.67;6.67;;;;;11.58;100.00;102932.56;5065805;28;45301;-88
2024/01/25 05:33:00;;;;;;;;;9.00;7.67;;;;;10.87;100.00;102843.66;5088813;27;45465;-88
2024/01/25 05:35:26;;;;;;;;;6.00;4.00;;;;;11.05;100.00;102861.03;5062989;28;48061;-88
2024/01/25 05:37:51;;;;;;;;;16.67;11.33;;;;;11.61;100.00;102940.44;5070402;28;45570;-87
2024/01/25 05:40:22;;;;;;;;;9.00;6.00;;;;;10.89;100.00;102828.66;5089376;27;45445;-87
2024/01/25 05:42:47;;;;;;;;;16.33;12.00;;;;;11.32;100.00;102917.06;5064258;27;45234;-87
2024/01/25 05:45:14;;;;;;;;;16.67;12.33;;;;;11.39;100.00;102900.16;5063547;28;47199;-87
2024/01/25 05:47:40;;;;;;;;;11.00;9.67;;;;;10.87;100.00;102798.66;5069880;28;45458;-87
2024/01/25 05:50:09;;;;;;;;;12.00;10.67;;;;;11.37;100.00;102891.38;5080829;28;45514;-87
2024/01/25 05:52:37;;;;;;;;;12.67;11.00;;;;;11.23;100.00;102858.06;5072055;28;45805;-87
2024/01/25 05:55:04;;;;;;;;;12.33;6.67;;;;;11.14;100.00;102855.59;5078914;28;45388;-87
2024/01/25 05:57:31;;;;;;;;;7.00;7.00;;;;;10.77;100.00;102786.47;5082190;27;45485;-88
2024/01/25 06:00:05;;;;;;;;;13.00;12.67;;;;;11.16;100.00;102864.41;5082304;27;45470;-87
2024/01/25 06:02:31;;;;;;;;;10.33;9.67;;;;;10.83;100.00;102807.56;5079497;27;45552;-87
2024/01/25 06:05:18;;;;;;;;;10.33;10.33;;;;;11.13;100.00;102862.66;5079283;27;45540;-87
2024/01/25 06:07:49;;;;;;;;;12.00;11.67;;;;;11.02;100.00;102845.22;5081223;27;45250;-86
2024/01/25 06:10:18;;;;;;;;;14.33;11.33;;;;;11.41;100.00;102914.28;5099932;27;45481;-86
2024/01/25 06:12:48;;;;;;;;;17.67;15.00;;;;;11.74;100.00;102963.22;5080978;27;45499;-86
2024/01/25 06:15:15;;;;;;;;;14.00;12.00;;;;;11.32;100.00;102885.28;5100520;27;46490;-86
2024/01/25 06:17:41;;;;;;;;;20.67;17.00;;;;;11.40;100.00;102916.94;5101115;27;45334;-86
2024/01/25 06:20:10;;;;;;;;;10.00;10.00;;;;;10.89;100.00;102832.19;5082735;27;45466;-86
2024/01/25 06:23:02;;;;;;;;;12.67;12.67;;;;;11.78;100.00;102959.59;5082202;27;45244;-86
2024/01/25 06:26:03;;;;;;;;;23.67;14.00;;;;;10.90;100.00;102815.38;5099503;27;48014;-85
2024/01/25 06:28:41;;;;;;;;;20.33;14.00;;;;;11.85;100.00;102989.53;5081296;27;45411;-85
2024/01/25 06:31:13;;;;;;;;;17.67;16.67;;;;;10.86;100.00;102778.41;5096314;27;45463;-86
2024/01/25 06:33:50;;;;;;;;;16.00;12.67;;;;;11.08;100.00;102823.91;5079313;27;45490;-85
2024/01/25 06:36:20;;;;;;;;;14.67;14.00;;;;;11.07;100.00;102823.03;5082925;27;45604;-85
2024/01/25 06:39:02;;;;;;;;;16.33;14.00;;;;;11.16;100.00;102822.88;5071715;27;45356;-86
2024/01/25 06:41:38;;;;;;;;;20.67;19.00;;;;;11.35;100.00;102866.69;5082287;27;45323;-85
2024/01/25 06:44:17;;;;;;;;;19.67;18.33;;;;;10.93;100.00;102803.84;5101768;27;45493;-86
2024/01/25 06:46:54;;;;;;;;;15.67;12.00;;;;;10.92;100.00;102813.59;5101655;27;46558;-86
2024/01/25 06:49:29;;;;;;;;;16.33;13.67;;;;;11.44;100.00;102879.78;5094641;27;45716;-86
2024/01/25 06:51:55;;;;;;;;;18.33;18.00;;;;;11.30;100.00;102850.00;5080566;27;45474;-86
2024/01/25 06:54:24;;;;;;;;;15.33;14.33;;;;;11.21;100.00;102821.03;5070600;27;45503;-85
2024/01/25 06:57:18;;;;;;;;;20.33;15.33;;;;;11.01;100.00;102785.19;5099206;27;46988;-86
2024/01/25 06:59:45;;;;;;;;;21.00;18.00;;;;;11.84;100.00;102921.50;5080456;27;45422;-86
2024/01/25 07:02:37;;;;;;;;;17.67;15.00;;;;;11.72;100.00;102909.34;5099250;27;45325;-86
2024/01/25 07:05:05;;;;;;;;;19.00;15.00;;;;;11.85;100.00;102910.84;5060290;28;45637;-85
2024/01/25 07:07:34;;;;;;;;;20.33;17.33;;;;;11.67;100.00;102876.72;5060291;28;45475;-86
2024/01/25 07:10:03;;;;;;;;;16.33;16.33;;;;;12.08;100.00;102944.91;5077252;28;45506;-86
2024/01/25 07:12:31;;;;;;;;;18.33;16.67;;;;;11.84;100.00;102910.91;5072232;28;45430;-86
2024/01/25 07:14:58;;;;;;;;;23.33;17.67;;;;;11.30;100.00;102796.16;5059733;28;45567;-86
2024/01/25 07:17:23;;;;;;;;;19.33;15.33;;;;;12.11;100.00;102958.09;5074675;28;46374;-86
2024/01/25 07:19:49;;;;;;;;;19.67;17.33;;;;;11.60;100.00;102864.47;5062628;28;45572;-86
2024/01/25 07:22:22;;;;;;;;;18.67;14.33;;;;;11.33;100.00;102798.75;5078652;28;45437;-86
2024/01/25 07:24:55;;;;;;;;;20.67;15.00;;;;;11.24;100.00;102805.09;5059053;28;45510;-85
2024/01/25 07:27:25;;;;;;;;;22.67;21.00;;;;;12.16;100.00;102942.97;5074447;28;46440;-85
2024/01/25 07:29:55;;;;;;;;;16.00;14.33;;;;;11.58;100.00;102845.09;5056707;28;45806;-86
2024/01/25 07:32:26;;;;;;;;;17.00;15.33;;;;;11.58;100.00;102837.16;5065252;28;45425;-85
2024/01/25 07:34:58;;;;;;;;;21.00;19.00;;;;;12.17;100.00;102981.00;5060964;28;45466;-86
2024/01/25 07:37:24;;;;;;;;;23.33;20.33;;;;;11.29;100.00;102803.22;5079223;28;45606;-86
2024/01/25 07:39:53;;;;;;;;;17.67;15.00;;;;;11.97;100.00;102921.25;5060429;28;45428;-86
2024/01/25 07:42:20;;;;;;;;;25.00;19.67;;;;;11.36;100.00;102802.19;5079484;28;45614;-86
2024/01/25 07:44:51;;;;;;;;;23.67;18.33;;;;;12.21;100.00;102967.63;5057489;28;45623;-86
2024/01/25 07:47:20;;;;;;;;;18.00;13.00;;;;;12.13;100.00;102929.78;5068801;28;45571;-86
2024/01/25 07:49:49;;;;;;;;;14.67;14.33;;;;;11.52;100.00;102808.97;5075802;28;45304;-86
2024/01/25 07:52:34;;;;;;;;;13.67;12.67;;;;;11.43;100.00;102782.66;5074365;28;45399;-85
2024/01/25 07:55:08;;;;;;;;;21.33;16.33;;;;;11.62;100.00;102827.31;5076141;28;45536;-86
2024/01/25 07:57:41;;;;;;;;;17.67;16.33;;;;;11.33;100.00;102773.13;5074967;28;45561;-85
2024/01/25 08:00:12;;;;;;;;;15.67;11.00;;;;;11.70;100.00;102828.06;5047367;28;45435;-85
2024/01/25 08:02:41;;;;;;;;;14.33;12.67;;;;;12.01;100.00;102884.91;5078914;28;45435;-86
2024/01/25 08:05:11;;;;;;;;;15.67;13.33;;;;;12.03;100.00;102885.78;5068100;28;45617;-86
2024/01/25 08:07:40;;;;;;;;;17.67;15.33;;;;;11.55;100.00;102807.19;5078189;28;45597;-85
2024/01/25 08:10:09;;;;;;;;;18.00;14.33;;;;;12.16;100.00;102900.53;5062800;28;45369;-86
2024/01/25 08:12:39;;;;;;;;;17.00;17.00;;;;;11.57;100.00;102819.50;5060961;28;45528;-87
2024/01/25 08:15:11;;;;;;;;;13.67;13.67;;;;;12.21;100.00;102926.97;5068000;28;45282;-86
2024/01/25 08:17:42;;;;;;;;;19.33;17.00;;;;;11.62;100.00;102830.84;5046904;28;45591;-86
2024/01/25 08:20:10;;;;;;;;;19.00;15.00;;;;;11.55;100.00;102770.06;5075086;28;45738;-86
2024/01/25 08:22:41;;;;;;;;;21.00;16.33;;;;;12.48;100.00;102950.28;5061064;28;45477;-86
2024/01/25 08:25:09;;;;;;;;;12.00;12.00;;;;;12.50;100.00;102936.06;5076414;28;45665;-87
2024/01/25 08:27:42;;;;;;;;;15.00;13.67;;;;;11.71;100.00;102812.19;5057324;28;47242;-87
2024/01/25 08:30:12;;;;;;;;;13.67;13.00;;;;;11.49;100.00;102763.97;5067808;28;45495;-86
2024/01/25 08:32:53;;;;;;;;;22.33;17.33;;;;;11.80;100.00;102781.94;5077426;28;45496;-86
2024/01/25 08:35:23;;;;;;;;;17.67;15.67;;;;;12.43;100.00;102896.44;5078720;28;45510;-86
2024/01/25 08:37:50;;;;;;;;;21.33;14.33;;;;;11.66;100.00;102771.59;5078393;28;45590;-86
2024/01/25 08:40:17;;;;;;;;;21.67;13.33;;;;;12.13;100.00;102830.75;5068428;28;45396;-86
2024/01/25 08:43:00;;;;;;;;;19.33;17.33;;;;;11.93;100.00;102813.50;5059529;28;45312;-86
2024/01/25 08:45:30;;;;;;;;;16.00;14.67;;;;;11.83;100.00;102773.94;5059922;28;45606;-87
2024/01/25 08:48:01;;;;;;;;;12.00;12.00;;;;;12.15;100.00;102845.72;5076644;28;46505;-87
2024/01/25 08:50:27;;;;;;;;;14.00;10.67;;;;;12.06;100.00;102797.31;5059130;28;45425;-87
2024/01/25 08:52:52;;;;;;;;;13.33;10.67;;;;;12.07;100.00;102829.13;5080237;28;45455;-86
2024/01/25 08:55:57;;;;;;;;;11.00;10.67;;;;;11.79;100.00;102751.91;5063974;28;45484;-86
2024/01/25 08:58:38;;;;;;;;;14.00;12.00;;;;;11.99;100.00;102788.63;5068468;28;45736;-87
2024/01/25 09:01:16;;;;;;;;;14.67;10.00;;;;;12.05;100.00;102787.59;5078831;28;45382;-86
2024/01/25 09:03:41;;;;;;;;;11.00;9.00;;;;;12.97;100.00;102981.97;5085764;27;45505;-86
2024/01/25 09:06:36;;;;;;;;;14.00;9.67;;;;;12.99;100.00;102973.03;5094970;27;45755;-86
2024/01/25 09:09:03;;;;;;;;;12.00;11.00;;;;;12.09;100.00;102797.25;5083440;27;45448;-86
2024/01/25 09:11:29;;;;;;;;;10.33;9.00;;;;;13.04;100.00;102952.56;5080074;27;45443;-86
2024/01/25 09:14:01;;;;;;;;;14.00;12.67;;;;;11.93;100.00;102765.75;5088588;27;45457;-86
2024/01/25 09:16:28;;;;;;;;;8.67;8.00;;;;;12.54;100.00;102850.16;5081908;27;45254;-85
2024/01/25 09:19:03;;;;;;;;;13.33;9.67;;;;;12.08;100.00;102780.44;5067218;27;45504;-84
2024/01/25 09:21:38;;;;;;;;;14.33;12.00;;;;;12.19;100.00;102780.22;5076015;28;45760;-85
2024/01/25 09:24:09;;;;;;;;;11.67;10.00;;;;;12.14;100.00;102774.16;5085802;27;45589;-86
2024/01/25 09:26:42;;;;;;;;;13.00;9.33;;;;;12.78;100.00;102875.28;5076544;28;45443;-86
2024/01/25 09:29:18;;;;;;;;;8.00;8.00;;;;;12.56;100.00;102836.88;5065502;27;47276;-86
2024/01/25 09:31:51;;;;;;;;;14.33;9.33;;;;;12.68;100.00;102859.59;5081115;27;45413;-85
2024/01/25 09:34:18;;;;;;;;;10.00;7.00;;;;;12.39;100.00;102818.69;5069805;27;45510;-85
2024/01/25 09:36:50;;;;;;;;;8.67;7.33;;;;;12.98;100.00;102904.91;5073195;27;45334;-85
2024/01/25 09:39:20;;;;;;;;;11.33;7.67;;;;;13.30;100.00;102949.34;5078604;27;47325;-85
2024/01/25 09:41:48;;;;;;;;;10.00;9.00;;;;;12.42;100.00;102785.88;5087649;27;45391;-86
2024/01/25 09:44:20;;;;;;;;;13.33;10.33;;;;;12.99;100.00;102876.53;5075120;27;45291;-86
2024/01/25 09:46:48;;;;;;;;;12.33;10.00;;;;;12.56;100.00;102820.06;5064966;27;45305;-86
2024/01/25 09:49:14;;;;;;;;;7.33;7.33;;;;;13.41;100.00;102955.28;5097326;27;45617;-86
2024/01/25 09:51:52;;;;;;;;;8.00;8.00;;;;;12.54;100.00;102780.28;5076903;27;45454;-86
2024/01/25 09:54:30;;;;;;;;;9.00;6.00;;;;;13.46;100.00;102937.41;5090713;27;45463;-86
2024/01/25 10:00:03;;;;;;;;;12.00;5.67;;;;;13.24;100.00;102899.00;5084367;27;47923;-86
2024/01/25 10:02:33;;;;;;;;;4.67;4.67;;;;;12.73;100.00;102833.84;5073992;27;45558;-86
2024/01/25 10:05:03;;;;;;;;;6.67;6.00;;;;;13.09;100.00;102877.25;5069091;27;45531;-86
2024/01/25 10:07:49;;;;;;;;;10.67;5.00;;;;;13.49;100.00;102965.69;5065589;28;45723;-86
2024/01/25 10:10:24;;;;;;;;;8.67;4.33;;;;;12.48;100.00;102768.03;5075910;27;47110;-85
2024/01/25 10:13:13;;;;;;;;;5.33;4.33;;;;;12.68;100.00;102809.16;5076578;28;45451;-85
2024/01/25 10:15:48;;;;;;;;;8.33;6.00;;;;;12.74;100.00;102840.88;5067711;28;45598;-85
2024/01/25 10:18:35;;;;;;;;;4.33;3.67;;;;;12.65;100.00;102791.53;5076206;28;45779;-84
2024/01/25 10:21:11;;;;;;;;;7.00;6.00;;;;;12.83;100.00;102820.28;5077722;28;45683;-84
2024/01/25 10:23:53;;;;;;;;;6.33;6.33;;;;;12.56;100.00;102762.56;5062615;28;45565;-87
2024/01/25 10:26:25;;;;;;;;;0.00;0.00;;;;;12.70;100.00;102784.31;5066990;28;45325;-84
2024/01/25 10:28:55;;;;;;;;;11.33;6.67;;;;;13.39;100.00;102900.38;5081090;27;45514;-85
2024/01/25 10:34:41;;;;;;;;;5.00;5.00;;;;;12.77;100.00;102803.63;5080707;28;45336;-84
2024/01/25 10:37:07;;;;;;;;;10.00;7.00;;;;;13.30;100.00;102888.22;5080613;28;45530;-84
2024/01/25 10:39:44;;;;;;;;;8.67;5.33;;;;;13.17;100.00;102836.28;5068698;28;45442;-83
2024/01/25 10:42:14;;;;;;;;;7.67;6.00;;;;;12.78;100.00;102778.81;5080055;28;48058;-84
2024/01/25 10:47:45;;;;;;;;;9.33;6.67;;;;;12.95;100.00;102781.94;5051544;28;45478;-83
2024/01/25 10:50:28;;;;;;;;;9.00;7.00;;;;;14.04;100.00;102971.34;5069942;28;45438;-83
2024/01/25 10:52:58;;;;;;;;;9.33;7.33;;;;;12.95;100.00;102758.03;5057995;28;45822;-84
2024/01/25 10:56:00;;;;;;;;;8.67;5.67;;;;;14.13;100.00;102940.09;5065471;28;45332;-83
2024/01/25 10:58:35;;;;;;;;;5.67;5.67;;;;;13.37;100.00;102802.09;5082046;27;45490;-83
2024/01/25 11:01:44;;;;;;;;;6.33;6.00;;;;;14.27;100.00;102935.22;5077956;28;45584;-83
2024/01/25 11:04:30;;;;;;;;;9.67;8.67;;;;;14.19;100.00;102911.50;5067653;28;45903;-83
2024/01/25 11:07:27;;;;;;;;;8.33;8.33;;;;;14.39;100.00;102953.56;5092844;27;45356;-83
2024/01/25 11:10:02;;;;;;;;;9.00;7.33;;;;;13.64;100.00;102792.50;5056455;28;45307;-83
2024/01/25 11:12:28;;;;;;;;;9.00;8.33;;;;;13.85;100.00;102834.41;5077492;28;45466;-83
2024/01/25 11:15:00;;;;;;;;;8.00;7.33;;;;;14.16;100.00;102862.81;5064411;28;47061;-85
2024/01/25 11:17:40;;;;;;;;;15.67;7.00;;;;;14.47;100.00;102899.16;5078404;28;45522;-84
2024/01/25 11:20:22;;;;;;;;;5.67;5.00;;;;;14.53;100.00;102906.06;5077409;28;45445;-83
2024/01/25 11:23:13;;;;;;;;;11.00;8.00;;;;;13.97;100.00;102772.03;5082984;27;45254;-84
2024/01/25 11:25:38;;;;;;;;;8.67;7.00;;;;;13.65;100.00;102689.63;5080205;27;46760;-83
2024/01/25 11:28:21;;;;;;;;;9.00;8.00;;;;;14.45;100.00;102812.25;5078157;28;45232;-83
2024/01/25 11:30:50;;;;;;;;;9.67;6.00;;;;;13.64;100.00;102688.81;5075400;28;45566;-84
2024/01/25 11:33:23;;;;;;;;;9.33;7.33;;;;;14.75;100.00;102875.22;5061220;28;45608;-83
2024/01/25 11:35:59;;;;;;;;;6.00;6.00;;;;;14.00;100.00;102703.59;5060514;28;46766;-83